Flight Track Log - Related Links

Times and Time Zones

All times are in EDT time to prevent confusion due to time zone crossing. See the EJM916 flight status page for this flight to view local times or setup timezone preferences in your user account.

Time Position Orientation Groundspeed Altitude Reporting Facility
EDT Latitude Longitude Course Direction KTS MPH feet Rate Location/Type
Sun 12:48:35 PM 38.1000 -85.7167 199° South 236 272 3,700  Level Louisville TRACON
Sun 12:49:06 PM 38.0803 -85.7253 199° South 265 305 4,700 3,032 Climbing Indianapolis Center
Sun 12:50:08 PM 38.0686 -85.8172 261° West 266 306 8,400 4,016 Climbing Indianapolis Center
Sun 12:51:10 PM 38.0733 -85.9364 273° West 279 321 13,000 3,097 Climbing Indianapolis Center
Sun 12:52:12 PM 38.0656 -86.0511 265° West 323 372 14,800 2,129 Climbing Indianapolis Center
Sun 12:53:14 PM 38.0583 -86.1783 266° West 358 412 17,400 2,419 Climbing Indianapolis Center
Sun 12:54:16 PM 38.0497 -86.3069 265° West 364 419 19,800 2,274 Climbing Indianapolis Center
Sun 12:55:18 PM 38.0389 -86.4381 264° West 370 426 22,100 2,081 Climbing Indianapolis Center
Sun 12:56:20 PM 38.0283 -86.5725 264° West 376 433 24,100 1,887 Climbing Indianapolis Center
Sun 12:57:22 PM 38.0167 -86.7119 264° West 390 449 26,000 1,854 Climbing Indianapolis Center
Sun 12:58:23 PM 38.0047 -86.8522 264° West 395 455 27,900 1,610 Climbing Indianapolis Center
Sun 12:59:25 PM 37.9936 -86.9972 264° West 404 465 29,300 1,258 Climbing Indianapolis Center
Sun 01:00:27 PM 37.9767 -87.1781 263° West 421 484 30,500 1,065 Climbing Indianapolis Center
Sun 01:01:29 PM 37.9642 -87.3328 264° West 433 498 31,500 1,016 Climbing Indianapolis Center
Sun 01:02:31 PM 37.9525 -87.4864 265° West 434 499 32,600 1,113 Climbing Indianapolis Center
Sun 01:03:33 PM 37.9581 -87.6364 273° West 423 487 33,800 1,113 Climbing Indianapolis Center
Sun 01:04:35 PM 37.9647 -87.7861 273° West 422 486 34,900 1,016 Climbing Indianapolis Center
Sun 01:05:37 PM 37.9697 -87.9344 272° West 420 483 35,900 532 Climbing Indianapolis Center
Sun 01:06:39 PM 37.9597 -88.0861 265° West 433 498 36,000 53 Climbing Indianapolis Center
Sun 01:07:31 PM 37.9361 -88.2425 259° West 447 514 36,000  Level Kansas City Center
Sun 01:08:33 PM 37.9083 -88.3986 257° West 451 519 36,000  Level Kansas City Center
Sun 01:09:35 PM 37.8825 -88.5567 258° West 457 526 36,000  Level Kansas City Center
Sun 01:10:37 PM 37.8544 -88.7136 257° West 454 522 36,000  Level Kansas City Center
Sun 01:11:39 PM 37.8386 -88.8606 262° West 455 524 36,000  Level Kansas City Center
Sun 01:12:41 PM 37.8328 -89.0519 268° West 448 516 36,000  Level Kansas City Center
Sun 01:13:43 PM 37.8269 -89.2100 267° West 450 518 36,000  Level Kansas City Center
Sun 01:14:45 PM 37.8239 -89.3525 268° West 448 516 36,000  Level Kansas City Center
Sun 01:15:47 PM 37.8175 -89.5197 267° West 448 516 36,000  Level Kansas City Center
Sun 01:16:49 PM 37.8111 -89.6764 267° West 448 516 36,000  Level Kansas City Center
Sun 01:17:51 PM 37.8053 -89.8356 267° West 450 518 36,000  Level Kansas City Center
Sun 01:18:53 PM 37.7969 -89.9950 266° West 453 521 36,000  Level Kansas City Center
Sun 01:19:55 PM 37.7889 -90.1883 267° West 458 527 36,000  Level Kansas City Center
Sun 01:20:57 PM 37.7819 -90.3478 267° West 456 525 36,000  Level Kansas City Center
Sun 01:21:59 PM 37.7742 -90.5028 266° West 447 514 36,000  Level Kansas City Center
Sun 01:23:02 PM 37.7664 -90.6644 267° West 454 522 36,000  Level Kansas City Center
Sun 01:24:04 PM 37.7589 -90.8236 267° West 455 524 36,000  Level Kansas City Center
Sun 01:25:06 PM 37.7506 -90.9864 266° West 459 528 36,000  Level Kansas City Center
Sun 01:26:08 PM 37.7411 -91.1728 266° West 459 528 36,000  Level Kansas City Center
Sun 01:27:10 PM 37.7328 -91.3353 266° West 461 531 36,000  Level Kansas City Center
Sun 01:28:12 PM 37.7244 -91.4958 266° West 459 528 36,000  Level Kansas City Center
Sun 01:29:14 PM 37.7156 -91.6567 266° West 457 526 36,000  Level Kansas City Center
Sun 01:30:16 PM 37.7069 -91.8167 266° West 455 524 36,000  Level Kansas City Center
Sun 01:31:18 PM 37.6978 -91.9769 266° West 454 522 36,000  Level Kansas City Center
Sun 01:32:20 PM 37.6886 -92.1389 266° West 455 524 36,000  Level Kansas City Center
Sun 01:33:22 PM 37.6767 -92.3342 266° West 461 531 36,000  Level Kansas City Center
Sun 01:35:26 PM 37.6561 -92.6589 266° West 457 526 36,000  Level Kansas City Center
Sun 01:36:28 PM 37.6475 -92.8189 266° West 456 525 36,000  Level Kansas City Center
Sun 01:37:30 PM 37.6375 -92.9764 265° West 451 519 36,000  Level Kansas City Center
Sun 01:38:32 PM 37.6258 -93.1342 265° West 450 518 36,000  Level Kansas City Center
Sun 01:39:34 PM 37.6156 -93.2933 265° West 452 520 36,000  Level Kansas City Center
Sun 01:40:36 PM 37.6047 -93.4506 265° West 452 520 36,000  Level Kansas City Center
Sun 01:41:38 PM 37.5931 -93.6369 266° West 445 512 36,000  Level Kansas City Center
Sun 01:42:40 PM 37.5808 -93.7925 264° West 445 512 36,000  Level Kansas City Center
Sun 01:43:42 PM 37.5689 -93.9464 264° West 443 510 36,000  Level Kansas City Center
Sun 01:44:44 PM 37.5578 -94.1108 265° West 441 507 36,000  Level Kansas City Center
Sun 01:45:46 PM 37.5464 -94.2653 265° West 442 509 36,000 194 Level Kansas City Center
Sun 01:46:48 PM 37.5347 -94.4211 265° West 445 512 36,400 532 Climbing Kansas City Center
Sun 01:47:50 PM 37.5214 -94.5739 264° West 443 510 37,100 726 Climbing Kansas City Center
Sun 01:48:52 PM 37.5086 -94.7250 264° West 439 505 37,900 871 Climbing Kansas City Center
Sun 01:49:54 PM 37.4933 -94.9053 264° West 435 501 38,900 871 Climbing Kansas City Center
Sun 01:50:56 PM 37.4806 -95.0539 264° West 431 496 39,700 532 Climbing Kansas City Center
Sun 01:51:58 PM 37.4686 -95.2050 264° West 432 497 40,000 145 Climbing Kansas City Center
Sun 01:53:00 PM 37.4553 -95.3569 264° West 435 501 40,000  Level Kansas City Center
Sun 01:54:02 PM 37.4428 -95.5100 264° West 439 505 40,000  Level Kansas City Center
Sun 01:55:04 PM 37.4289 -95.6619 263° West 439 505 40,000  Level Kansas City Center
Sun 01:56:06 PM 37.4128 -95.8439 264° West 437 503 40,000  Level Kansas City Center
Sun 01:57:08 PM 37.3992 -95.9969 264° West 439 505 40,000  Level Kansas City Center
Sun 01:58:10 PM 37.3842 -96.1514 263° West 442 509 40,000  Level Kansas City Center
Sun 01:59:12 PM 37.3694 -96.3042 263° West 442 509 40,000  Level Kansas City Center
Sun 02:00:14 PM 37.3539 -96.4597 263° West 442 509 40,000  Level Kansas City Center
Sun 02:01:16 PM 37.3392 -96.6133 263° West 441 507 40,000  Level Kansas City Center
Sun 02:02:19 PM 37.3244 -96.7669 263° West 442 509 40,000  Level Kansas City Center
Sun 02:03:21 PM 37.3092 -96.9211 263° West 443 510 40,000  Level Kansas City Center
Sun 02:04:23 PM 37.2900 -97.1061 263° West 444 511 40,000  Level Kansas City Center
Sun 02:05:25 PM 37.2742 -97.2619 263° West 446 513 40,000  Level Kansas City Center
Sun 02:06:27 PM 37.2572 -97.4181 262° West 448 516 40,000  Level Kansas City Center
Sun 02:07:29 PM 37.2419 -97.5736 263° West 448 516 40,000  Level Kansas City Center
Sun 02:08:31 PM 37.2244 -97.7289 262° West 448 516 40,000  Level Kansas City Center
Sun 02:09:33 PM 37.2081 -97.8844 263° West 448 516 40,000  Level Kansas City Center
Sun 02:10:35 PM 37.1906 -98.0406 262° West 448 516 40,000  Level Kansas City Center
Sun 02:11:37 PM 37.1703 -98.2261 262° West 448 516 40,000  Level Kansas City Center
Sun 02:12:39 PM 37.1539 -98.3794 262° West 446 513 40,000  Level Kansas City Center
Sun 02:13:41 PM 37.1358 -98.5344 262° West 446 513 40,000  Level Kansas City Center
Sun 02:14:43 PM 37.1186 -98.6897 262° West 448 516 40,000  Level Kansas City Center
Sun 02:15:45 PM 37.1011 -98.8428 262° West 447 514 40,000  Level Kansas City Center
Sun 02:16:47 PM 37.0828 -98.9981 262° West 448 516 40,000  Level Kansas City Center
Sun 02:17:49 PM 37.0631 -99.1578 261° West 444 511 40,000  Level Kansas City Center
Sun 02:18:51 PM 37.0453 -99.3081 262° West 440 506 40,000  Level Kansas City Center
Sun 02:19:53 PM 37.0228 -99.4894 261° West 440 506 40,000  Level Kansas City Center
Sun 02:20:55 PM 37.0044 -99.6372 261° West 434 499 40,000  Level Kansas City Center
Sun 02:21:57 PM 36.9850 -99.7903 261° West 440 506 40,000  Level Kansas City Center
Sun 02:22:59 PM 36.9667 -99.9383 261° West 436 502 40,000  Level Kansas City Center
Sun 02:24:01 PM 36.9464 -100.0953 261° West 438 504 40,000  Level Kansas City Center
Sun 02:25:03 PM 36.9253 -100.2644 261° West 439 505 40,000  Level Kansas City Center
Sun 02:26:05 PM 36.9056 -100.4083 260° West 438 504 40,000  Level Kansas City Center
Sun 02:27:08 PM 36.8833 -100.5761 261° West 438 504 40,000  Level Kansas City Center
Sun 02:28:10 PM 36.8653 -100.7181 261° West 434 499 40,000  Level Kansas City Center
Sun 02:29:12 PM 36.8450 -100.8622 260° West 436 502 40,000  Level Kansas City Center
Sun 02:30:14 PM 36.8222 -101.0283 260° West 436 502 40,000  Level Kansas City Center
Sun 02:31:16 PM 36.8033 -101.1725 261° West 437 503 40,000  Level Kansas City Center
Sun 02:32:18 PM 36.7803 -101.3411 260° West 440 506 40,000  Level Kansas City Center
Sun 02:33:20 PM 36.7606 -101.4844 260° West 439 505 40,000  Level Kansas City Center
Sun 02:34:22 PM 36.7372 -101.6497 260° West 435 501 40,000  Level Kansas City Center
Sun 02:35:07 PM 36.7244 -101.7458 261° West 437 503 40,000  Level Albuquerque Center
Sun 02:36:09 PM 36.7003 -101.9125 260° West 438 504 40,000  Level Albuquerque Center
Sun 02:37:11 PM 36.6792 -102.0542 260° West 435 501 40,000  Level Albuquerque Center
Sun 02:38:13 PM 36.6544 -102.2278 260° West 436 502 40,000  Level Albuquerque Center
Sun 02:39:15 PM 36.6322 -102.3744 259° West 435 501 40,000  Level Albuquerque Center
Sun 02:40:17 PM 36.6108 -102.5222 260° West 437 503 40,000  Level Albuquerque Center
Sun 02:41:19 PM 36.5894 -102.6672 260° West 431 496 40,000  Level Albuquerque Center
Sun 02:42:21 PM 36.5667 -102.8133 259° West 432 497 40,000  Level Albuquerque Center
Sun 02:43:23 PM 36.5406 -102.9847 259° West 435 501 40,000  Level Albuquerque Center
Sun 02:44:25 PM 36.5178 -103.1317 259° West 432 497 40,000  Level Albuquerque Center
Sun 02:45:27 PM 36.4947 -103.2792 259° West 431 496 40,000  Level Albuquerque Center
Sun 02:46:29 PM 36.4714 -103.4275 259° West 435 501 40,000  Level Albuquerque Center
Sun 02:47:31 PM 36.4478 -103.5769 259° West 436 502 40,000  Level Albuquerque Center
Sun 02:48:33 PM 36.4242 -103.7267 259° West 438 504 40,000  Level Albuquerque Center
Sun 02:49:35 PM 36.3956 -103.9019 259° West 440 506 40,000  Level Albuquerque Center
Sun 02:50:37 PM 36.3717 -104.0511 259° West 439 505 40,000  Level Albuquerque Center
Sun 02:51:39 PM 36.3475 -104.1997 259° West 438 504 40,000  Level Albuquerque Center
Sun 02:52:41 PM 36.3231 -104.3442 258° West 431 496 40,000  Level Albuquerque Center
Sun 02:53:43 PM 36.2978 -104.4914 258° West 433 498 40,000  Level Albuquerque Center
Sun 02:54:45 PM 36.2742 -104.6397 259° West 435 501 40,000  Level Albuquerque Center
Sun 02:55:47 PM 36.2500 -104.7850 258° West 432 497 40,000  Level Albuquerque Center
Sun 02:56:49 PM 36.2311 -104.9511 262° West 422 486 40,000 -48 Level Albuquerque Center
Sun 02:57:51 PM 36.2428 -105.0969 276° West 423 487 39,900  Descending Albuquerque Center
Sun 02:58:53 PM 36.2614 -105.2428 279° West 425 489 40,000 48 Climbing Albuquerque Center
Sun 02:59:55 PM 36.2764 -105.3892 277° West 426 490 40,000  Level Albuquerque Center
Sun 03:00:57 PM 36.2644 -105.5344 264° West 423 487 40,000  Level Albuquerque Center
Sun 03:01:59 PM 36.2356 -105.6700 255° West 428 493 40,000  Level Albuquerque Center
Sun 03:03:01 PM 36.1994 -105.8422 255° West 432 497 40,000  Level Albuquerque Center
Sun 03:04:03 PM 36.1708 -105.9889 256° West 437 503 40,000  Level Albuquerque Center
Sun 03:05:05 PM 36.1392 -106.1322 255° West 435 501 40,000  Level Albuquerque Center
Sun 03:06:07 PM 36.1111 -106.2761 256° West 432 497 40,000  Level Albuquerque Center
Sun 03:07:09 PM 36.0811 -106.4175 255° West 430 495 40,000  Level Albuquerque Center
Sun 03:08:11 PM 36.0503 -106.5592 255° West 429 494 40,000  Level Albuquerque Center
Sun 03:09:12 PM 36.0144 -106.7292 255° West 429 494 40,000  Level Albuquerque Center
Sun 03:10:14 PM 35.9836 -106.8719 255° West 432 497 40,000  Level Albuquerque Center
Sun 03:11:16 PM 35.9533 -107.0144 255° West 432 497 40,000  Level Albuquerque Center
Sun 03:12:18 PM 35.9225 -107.1567 255° West 431 496 40,000  Level Albuquerque Center
Sun 03:13:20 PM 35.8897 -107.3033 255° West 434 499 40,000  Level Albuquerque Center
Sun 03:14:22 PM 35.8583 -107.4639 256° West 432 497 40,000  Level Albuquerque Center
Sun 03:15:24 PM 35.8392 -107.6022 260° West 430 495 40,000  Level Albuquerque Center
Sun 03:16:26 PM 35.8142 -107.7644 259° West 431 496 40,000  Level Albuquerque Center
Sun 03:17:27 PM 35.7917 -107.9058 259° West 435 501 40,000  Level Albuquerque Center
Sun 03:18:29 PM 35.7658 -108.0708 259° West 438 504 40,000  Level Albuquerque Center
Sun 03:19:31 PM 35.7433 -108.2108 259° West 436 502 40,000  Level Albuquerque Center
Sun 03:20:33 PM 35.7219 -108.3500 259° West 433 498 40,000  Level Albuquerque Center
Sun 03:21:35 PM 35.6964 -108.5117 259° West 430 495 40,000  Level Albuquerque Center
Sun 03:22:37 PM 35.6733 -108.6536 259° West 435 501 40,000  Level Albuquerque Center
Sun 03:23:39 PM 35.6464 -108.8189 259° West 437 503 40,000  Level Albuquerque Center
Sun 03:24:41 PM 35.6236 -108.9597 259° West 437 503 40,000  Level Albuquerque Center
Sun 03:25:42 PM 35.5961 -109.1236 258° West 437 503 40,000  Level Albuquerque Center
Sun 03:26:44 PM 35.5742 -109.2617 259° West 431 496 40,000  Level Albuquerque Center
Sun 03:27:46 PM 35.5517 -109.4022 259° West 434 499 40,000  Level Albuquerque Center
Sun 03:28:48 PM 35.5236 -109.5639 258° West 434 499 40,000  Level Albuquerque Center
Sun 03:29:50 PM 35.5006 -109.7028 259° West 433 498 40,000  Level Albuquerque Center
Sun 03:30:52 PM 35.4725 -109.8625 258° West 430 495 40,000 -484 Level Albuquerque Center
Sun 03:31:54 PM 35.4472 -110.0000 257° West 431 496 39,000 -1,113 Descending Albuquerque Center
Sun 03:32:56 PM 35.4194 -110.1628 258° West 434 499 37,700 -1,210 Descending Albuquerque Center
Sun 03:33:58 PM 35.3939 -110.3028 257° West 438 504 36,500 -829 Descending Albuquerque Center
Sun 03:34:59 PM 35.3678 -110.4411 257° West 438 504 36,000 -244 Descending Albuquerque Center
Sun 03:36:01 PM 35.3403 -110.6075 259° West 443 510 36,000  Level Albuquerque Center
Sun 03:37:03 PM 35.3142 -110.7486 257° West 445 512 36,000  Level Albuquerque Center
Sun 03:38:05 PM 35.2844 -110.9131 258° West 444 511 36,000 -48 Level Albuquerque Center
Sun 03:39:07 PM 35.2586 -111.0533 257° West 443 510 35,900 -581 Descending Albuquerque Center
Sun 03:40:09 PM 35.1869 -111.1750 234° Southwest 449 517 34,800 -1,065 Descending Albuquerque Center
Sun 03:41:11 PM 35.0842 -111.2561 213° Southwest 439 505 33,700 -1,452 Descending Albuquerque Center
Sun 03:42:13 PM 34.9614 -111.3511 212° Southwest 439 505 31,800 -1,597 Descending Albuquerque Center
Sun 03:43:15 PM 34.8569 -111.4297 212° Southwest 440 506 30,400 -1,210 Descending Albuquerque Center
Sun 03:44:17 PM 34.7550 -111.5178 215° Southwest 448 516 29,300 -1,210 Descending Albuquerque Center
Sun 03:45:19 PM 34.6711 -111.6311 228° Southwest 453 521 27,900 -1,805 Descending Albuquerque Center
Sun 03:46:20 PM 34.5781 -111.7228 219° Southwest 437 503 25,600 -3,317 Descending Albuquerque Center
Sun 03:47:22 PM 34.4742 -111.7822 205° Southwest 420 483 21,100 -4,694 Descending Albuquerque Center
Sun 03:48:24 PM 34.3578 -111.8494 205° Southwest 395 455 15,900 -4,452 Descending Albuquerque Center
Sun 03:49:26 PM 34.2642 -111.8997 204° Southwest 379 436 11,900 -2,419 Descending Albuquerque Center
Sun 03:50:28 PM 34.1789 -111.9225 192° South 313 360 10,900 -968 Descending Albuquerque Center
Sun 03:51:30 PM 34.0961 -111.9281 183° South 302 348 9,900 -1,210 Descending Albuquerque Center
Sun 03:52:32 PM 34.0153 -111.9322 182° South 296 341 8,400 -1,220 Descending Albuquerque Center
Sun 03:53:33 PM 33.9219 -111.9389 183° South 287 330 7,400 -732 Descending Albuquerque Center
Sun 03:54:35 PM 33.8433 -111.9444 183° South 286 329 6,900 -532 Descending Albuquerque Center
Sun 03:55:37 PM 33.7642 -111.9489 183° South 287 330 6,300 -726 Descending Albuquerque Center
Sun 03:56:39 PM 33.6931 -111.9542 184° South 259 298 5,400 -1,065 Descending Albuquerque Center
Sun 03:57:41 PM 33.6333 -111.9342 164° South 234 269 4,100 -832 Descending Albuquerque Center
Sun 03:58:20 PM 33.5833 -111.9000 150° Southeast 224 258 4,000 -452 Descending Phoenix TRACON
Sun 03:59:14 PM 33.6167 -111.8500 51° Northeast 192 221 3,400 -628 Descending Phoenix TRACON
Sun 03:59:46 PM 33.6325 -111.8475 North 186 214 3,100 -903 Descending Albuquerque Center
Sun 04:00:47 PM 33.6450 -111.8864 291° West 170 196 2,000 -829 Descending Albuquerque Center
Sun 04:01:49 PM 33.6194 -111.9139 222° Southwest 138 159 1,400 -581 Descending Albuquerque Center
Sun 04:03:00 PM 33.6229 -111.9105 North  Level Estimated

Login

Don't have an account? Register now (free) for customized features, flight alerts, and more!